Terminal Aerodrome Forecast
Issued by NWS

Home | Current Version | Previous Version | Text Only | Print | Product List | Glossary On
Versions: 1 2 3 4 5 6 7 8 9 10 11 12
395
FTAK31 PAJN 181123
TAFAWG
TAF
PAWG 181123Z 1812/1912 09017G24KT P6SM -RA BKN035 OVC050
      WS020/13045KT
     FM181400 09018G30KT 5SM RA BR OVC030 WS020/13055KT
     FM181700 11015G22KT P6SM -RA BKN030 OVC045
     FM182000 12011KT P6SM -SHRA SCT030 OVC045
     FM190200 09007KT P6SM VCSH BKN045 BKN090
      AMD NOT SKED 1812/1815=

USA.gov is the U.S. government's official web portal to all federal, state and local government web resources and services.